St. Michael, MN

7:36 PM CDT on August 27, 2016 (GMT -0500)
The Landings At The Crow | | Change Station

Elev 950 ft 45.18 °N, 93.65 °W | Updated 14 seconds ago

Overcast
Overcast
67.6 °F
Feels Like 67.6 °F
N
0.0
Wind Variable Wind from North
Gusts 0.0 mph

Today
High -- | Low -- °F
--% Chance of Precip.
Yesterday
High -- | Low -- °F
Precip. -- in
Pressure 30.02 in
Visibility 10.0 miles
Clouds Scattered Clouds 1300 ft
Scattered Clouds 1900 ft
Overcast 3800 ft
Dew Point 49 °F
Humidity 52%
Rainfall 0.00 in
Snow Depth Not available.
6:31 AM 7:59 PM
Waning Crescent, 20% visible
METAR KCFE 280014Z AUTO 00000KT 10SM SCT013 SCT019 OVC038 20/16 A3002 RMK AO2 T01950161
Pressure 30.02 in
Visibility 10.0 miles
Clouds Scattered Clouds 1300 ft
Scattered Clouds 1900 ft
Overcast 3800 ft
Dew Point 49 °F
Humidity 52%
Rainfall 0.00 in
Snow Depth Not available.
6:31 AM 7:59 PM
Waning Crescent, 20% visible
METAR KCFE 280014Z AUTO 00000KT 10SM SCT013 SCT019 OVC038 20/16 A3002 RMK AO2 T01950161

10-Day Weather Forecast

Almanac

Astronomy

Aug. 27, 2016 Rise Set
Actual Time
Civil Twilight
Nautical Twilight
Astronomical Twilight
Moon
Length of Visible Light
Length of Day
Tomorrow will be .
, % of the Moon is Illuminated

Today's Extremes

State Highs State Lows

Community

WunderPhotos

Upload Photos

1,935,475 photos uploaded!

WunderBlog® & News

Nearby

Air Quality

  Air Quality AQ Index Pollutant
Not available.

Snow Depth

Station Depth Elevation

Earthquake Activity

City Distance Mag. Time & Date
Minimum magnitude displayed is 2.5.

Coastal Water Temperatures

Place Temperature

Stations

Nearby Weather Stations

Station Location Temp. Windchill Dew Point Humidity Wind Precip. Elev Updated Type
                   

Watches & Warnings

There are currently no watches in effect.